createdAt,value
2023-05-12T00:02:08.177Z,3.15
2023-05-12T00:04:36.641Z,3.47
2023-05-12T00:07:06.181Z,3.80
2023-05-12T00:09:33.547Z,3.53
2023-05-12T00:12:00.894Z,3.40
2023-05-12T00:14:28.146Z,3.60
2023-05-12T00:16:55.505Z,3.72
2023-05-12T00:19:22.893Z,3.40
2023-05-12T00:21:50.133Z,3.58
2023-05-12T00:24:17.401Z,3.78
2023-05-12T00:26:44.691Z,3.45
2023-05-12T00:29:11.965Z,3.35
2023-05-12T00:31:39.235Z,3.33
2023-05-12T00:34:06.559Z,3.47
2023-05-12T00:36:33.888Z,3.47
2023-05-12T00:39:01.342Z,2.97
2023-05-12T00:41:28.590Z,2.88
2023-05-12T00:43:55.867Z,3.50
2023-05-12T00:46:23.238Z,3.13
2023-05-12T00:48:50.549Z,2.95
2023-05-12T00:51:17.919Z,2.90
2023-05-12T00:53:49.804Z,2.78
2023-05-12T00:56:21.917Z,2.53
2023-05-12T00:58:49.265Z,3.00
2023-05-12T01:01:17.786Z,2.95
2023-05-12T01:03:46.497Z,3.00
2023-05-12T01:06:29.957Z,2.80
2023-05-12T01:08:57.471Z,3.70
2023-05-12T01:11:24.814Z,3.25
2023-05-12T01:13:52.208Z,3.00
2023-05-12T01:16:21.929Z,3.00
2023-05-12T01:18:51.369Z,2.65
2023-05-12T01:21:19.697Z,2.90
2023-05-12T01:23:51.771Z,2.70
2023-05-12T01:26:19.115Z,3.00
2023-05-12T01:28:46.451Z,2.85
2023-05-12T01:31:13.937Z,2.42
2023-05-12T01:33:42.124Z,2.83
2023-05-12T01:36:09.608Z,2.20
2023-05-12T01:38:37.661Z,2.90
2023-05-12T01:41:05.296Z,2.80
2023-05-12T01:43:32.650Z,3.33
2023-05-12T01:46:00.070Z,2.53
2023-05-12T01:48:28.165Z,2.67
2023-05-12T01:51:00.492Z,2.75
2023-05-12T01:53:27.783Z,2.60
2023-05-12T01:55:55.102Z,3.00
2023-05-12T01:58:23.738Z,2.77
2023-05-12T02:00:51.171Z,3.10
2023-05-12T02:03:19.367Z,2.88
2023-05-12T02:05:46.664Z,3.13
2023-05-12T02:08:13.914Z,3.05
2023-05-12T02:10:41.809Z,2.90
2023-05-12T02:13:09.243Z,2.83
2023-05-12T02:15:36.544Z,2.95
2023-05-12T02:18:04.613Z,3.13
2023-05-12T02:20:32.618Z,3.60
2023-05-12T02:23:00.923Z,3.07
2023-05-12T02:25:30.558Z,2.80
2023-05-12T02:27:57.819Z,3.28
2023-05-12T02:30:25.361Z,2.90
2023-05-12T02:32:52.707Z,3.08
2023-05-12T02:35:20.216Z,3.13
2023-05-12T02:37:47.491Z,3.13
2023-05-12T02:40:14.823Z,3.15
2023-05-12T02:42:43.565Z,3.65
2023-05-12T02:45:11.601Z,3.30
2023-05-12T02:47:39.253Z,3.43
2023-05-12T02:50:07.478Z,3.60
2023-05-12T02:52:34.796Z,3.33
2023-05-12T02:55:02.195Z,3.20
2023-05-12T02:57:33.955Z,3.42
2023-05-12T03:00:01.965Z,2.97
2023-05-12T03:02:29.648Z,2.88
2023-05-12T03:04:56.989Z,2.80
2023-05-12T03:07:24.416Z,2.90
2023-05-12T03:09:51.657Z,2.90
2023-05-12T03:12:18.959Z,2.40
2023-05-12T03:14:46.225Z,2.30
2023-05-12T03:17:13.620Z,2.95
2023-05-12T03:19:41.144Z,2.50
2023-05-12T03:22:08.534Z,2.85
2023-05-12T03:24:36.668Z,3.20
2023-05-12T03:27:04.208Z,3.10
2023-05-12T03:29:31.898Z,3.50
2023-05-12T03:31:59.295Z,3.17
2023-05-12T03:34:27.089Z,2.95
2023-05-12T03:36:57.371Z,2.90
2023-05-12T03:39:25.222Z,2.50
2023-05-12T03:41:53.043Z,3.25
2023-05-12T03:44:20.263Z,2.67
2023-05-12T03:46:47.656Z,3.00
2023-05-12T03:49:15.102Z,3.17
2023-05-12T03:51:42.358Z,3.00
2023-05-12T03:54:09.695Z,3.10
2023-05-12T03:56:37.049Z,2.80
2023-05-12T03:59:04.439Z,3.17
2023-05-12T04:01:31.903Z,3.27
2023-05-12T04:04:01.559Z,2.90
2023-05-12T04:06:28.956Z,2.75
2023-05-12T04:08:57.321Z,2.70
2023-05-12T04:11:24.640Z,3.50
2023-05-12T04:13:51.853Z,3.17
2023-05-12T04:16:19.159Z,3.20
2023-05-12T04:18:46.614Z,2.85
2023-05-12T04:21:13.887Z,3.55
2023-05-12T04:23:41.096Z,3.10
2023-05-12T04:26:08.400Z,3.33
2023-05-12T04:28:37.069Z,3.67
2023-05-12T04:31:04.714Z,3.30
2023-05-12T04:33:32.615Z,3.53
2023-05-12T04:36:00.813Z,3.70
2023-05-12T04:38:28.145Z,3.30
2023-05-12T04:40:59.909Z,3.38
2023-05-12T04:45:59.955Z,3.42
2023-05-12T04:48:29.100Z,3.47
2023-05-12T04:50:59.695Z,3.63
2023-05-12T04:53:34.597Z,4.32
2023-05-12T04:56:02.920Z,3.15
2023-05-12T04:58:34.894Z,2.92
2023-05-12T05:01:02.429Z,3.28
2023-05-12T05:03:29.962Z,3.67
2023-05-12T05:05:57.460Z,3.55
2023-05-12T05:08:25.579Z,3.33
2023-05-12T05:10:52.846Z,3.55
2023-05-12T05:13:20.160Z,3.13
2023-05-12T05:15:52.029Z,2.73
2023-05-12T05:18:22.378Z,3.08
2023-05-12T05:20:57.780Z,3.35
2023-05-12T05:23:26.793Z,3.28
2023-05-12T05:25:54.395Z,3.22
2023-05-12T05:28:21.828Z,3.80
2023-05-12T05:30:49.113Z,2.78
2023-05-12T05:33:17.419Z,3.63
2023-05-12T05:35:45.568Z,3.38
2023-05-12T05:38:13.123Z,3.08
2023-05-12T05:40:52.246Z,3.17
2023-05-12T05:43:21.398Z,3.85
2023-05-12T05:45:52.188Z,3.40
2023-05-12T05:48:21.850Z,2.92
2023-05-12T05:50:49.169Z,2.50
2023-05-12T05:53:18.497Z,2.30
2023-05-12T05:55:46.605Z,3.28
2023-05-12T05:58:15.287Z,2.78
2023-05-12T06:00:43.619Z,3.05
2023-05-12T06:03:11.644Z,2.10
2023-05-12T06:05:39.080Z,2.40
2023-05-12T06:08:08.974Z,2.42
2023-05-12T06:10:36.253Z,2.30
2023-05-12T06:13:03.596Z,2.35
2023-05-12T06:15:30.892Z,2.38
2023-05-12T06:17:58.212Z,2.10
2023-05-12T06:20:25.977Z,2.10
2023-05-12T06:22:53.289Z,2.10
2023-05-12T06:25:20.814Z,2.45
2023-05-12T06:27:52.053Z,2.00
2023-05-12T06:30:19.438Z,2.40
2023-05-12T06:32:46.834Z,2.28
2023-05-12T06:35:14.145Z,2.55
2023-05-12T06:37:41.433Z,2.75
2023-05-12T06:40:09.173Z,2.42
2023-05-12T06:42:36.471Z,2.33
2023-05-12T06:45:11.397Z,2.10
2023-05-12T06:47:41.226Z,2.15
2023-05-12T06:50:08.811Z,2.50
2023-05-12T06:52:36.123Z,2.40
2023-05-12T06:55:03.498Z,2.07
2023-05-12T06:57:30.820Z,2.55
2023-05-12T06:59:58.156Z,2.22
2023-05-12T07:02:25.390Z,2.60
2023-05-12T07:04:52.677Z,2.22
2023-05-12T07:07:19.941Z,2.57
2023-05-12T07:09:47.249Z,2.80
2023-05-12T07:12:14.518Z,2.90
2023-05-12T07:14:41.782Z,3.33
2023-05-12T07:17:09.141Z,3.17
2023-05-12T07:19:36.638Z,2.67
2023-05-12T07:22:04.550Z,2.30
2023-05-12T07:24:31.801Z,2.80
2023-05-12T07:26:59.094Z,2.70
2023-05-12T07:29:26.369Z,2.75
2023-05-12T07:31:53.867Z,2.57
2023-05-12T07:34:21.455Z,2.40
2023-05-12T07:36:48.795Z,2.75
2023-05-12T07:39:19.423Z,2.92
2023-05-12T07:41:46.726Z,2.40
2023-05-12T07:44:13.955Z,2.23
2023-05-12T07:46:41.315Z,2.30
2023-05-12T07:49:08.688Z,2.65
2023-05-12T07:51:36.305Z,2.53
2023-05-12T07:54:04.853Z,2.30
2023-05-12T07:56:32.137Z,2.50
2023-05-12T07:58:59.495Z,2.72
2023-05-12T08:01:26.806Z,2.50
2023-05-12T08:03:54.130Z,2.42
2023-05-12T08:06:21.465Z,2.67
2023-05-12T08:08:48.820Z,2.10
2023-05-12T08:11:16.086Z,2.58
2023-05-12T08:13:43.351Z,2.28
2023-05-12T08:16:10.699Z,2.40
2023-05-12T08:18:38.808Z,2.40
2023-05-12T08:21:06.136Z,2.50
2023-05-12T08:23:34.791Z,2.25
2023-05-12T08:26:02.038Z,2.25
2023-05-12T08:28:29.292Z,2.50
2023-05-12T08:30:56.751Z,2.30
2023-05-12T08:33:24.244Z,2.50
2023-05-12T08:35:52.269Z,2.70
2023-05-12T08:38:19.536Z,2.45
2023-05-12T08:40:55.984Z,2.60
2023-05-12T08:43:27.080Z,2.42
2023-05-12T08:45:57.748Z,2.67
2023-05-12T08:48:27.212Z,2.53
2023-05-12T08:50:54.605Z,2.60
2023-05-12T08:53:24.674Z,2.13
2023-05-12T08:57:09.734Z,2.35
2023-05-12T08:58:42.194Z,2.27
2023-05-12T09:01:10.249Z,2.17
2023-05-12T09:03:37.632Z,2.30
2023-05-12T09:06:04.931Z,2.13
2023-05-12T09:08:33.188Z,2.40
2023-05-12T09:11:00.706Z,2.00
2023-05-12T09:14:08.827Z,2.28
2023-05-12T09:16:44.439Z,2.20
2023-05-12T09:19:11.819Z,2.47
2023-05-12T09:21:39.841Z,2.42
2023-05-12T09:24:07.593Z,2.17
2023-05-12T09:26:46.577Z,2.10
2023-05-12T09:29:24.003Z,2.35
2023-05-12T09:31:57.749Z,2.10
2023-05-12T09:34:41.399Z,2.20
2023-05-12T09:37:09.121Z,2.50
2023-05-12T09:39:36.742Z,2.20
2023-05-12T09:42:04.356Z,2.45
2023-05-12T09:44:32.039Z,2.28
2023-05-12T09:47:10.102Z,2.55
2023-05-12T09:49:38.312Z,2.53
2023-05-12T09:52:05.972Z,2.40
2023-05-12T09:54:33.857Z,2.30
2023-05-12T09:57:04.996Z,2.35
2023-05-12T09:59:36.349Z,2.38
2023-05-12T10:02:06.035Z,2.50
2023-05-12T10:04:41.802Z,2.50
2023-05-12T10:07:13.126Z,2.53
2023-05-12T10:09:42.320Z,2.38
2023-05-12T10:12:10.003Z,2.17
2023-05-12T10:14:37.483Z,2.13
2023-05-12T10:17:05.553Z,2.15
2023-05-12T10:19:32.944Z,2.47
2023-05-12T10:22:00.313Z,2.03
2023-05-12T10:24:27.998Z,2.30
2023-05-12T10:26:59.610Z,2.20
2023-05-12T10:29:29.961Z,2.22
2023-05-12T10:31:58.061Z,2.75
2023-05-12T10:34:35.918Z,2.35
2023-05-12T10:37:09.061Z,2.65
2023-05-12T10:39:37.194Z,2.37
2023-05-12T10:42:08.560Z,3.13
2023-05-12T10:44:36.479Z,2.80
2023-05-12T10:47:13.773Z,2.50
2023-05-12T10:49:41.760Z,2.88
2023-05-12T10:52:12.626Z,3.00
2023-05-12T10:54:44.240Z,2.40
2023-05-12T10:57:18.232Z,2.40
2023-05-12T10:59:53.203Z,2.50
2023-05-12T11:02:26.525Z,2.45
2023-05-12T11:04:59.580Z,2.10
2023-05-12T11:07:33.042Z,2.83
2023-05-12T11:10:02.020Z,2.80
2023-05-12T11:12:32.678Z,2.67
2023-05-12T11:15:04.253Z,2.55
2023-05-12T11:17:32.106Z,2.60
2023-05-12T11:20:01.115Z,2.40
2023-05-12T11:22:28.770Z,2.33
2023-05-12T11:24:56.210Z,2.28
2023-05-12T11:27:24.062Z,2.22
2023-05-12T11:30:01.794Z,2.43
2023-05-12T11:32:29.762Z,2.50
2023-05-12T11:35:09.894Z,2.13
2023-05-12T11:37:39.290Z,2.30
2023-05-12T11:40:13.703Z,2.45
2023-05-12T11:42:42.896Z,2.53
2023-05-12T11:45:28.868Z,1.95
2023-05-12T11:48:11.329Z,2.22
2023-05-12T11:50:40.054Z,1.83
2023-05-12T11:53:15.679Z,2.30
2023-05-12T11:55:55.783Z,2.43
2023-05-12T11:58:27.193Z,2.40
2023-05-12T12:00:54.539Z,2.40
2023-05-12T12:03:21.848Z,2.75
2023-05-12T12:06:00.187Z,2.80
2023-05-12T12:08:27.498Z,2.73
2023-05-12T12:10:57.079Z,2.88
2023-05-12T12:13:25.381Z,2.67
2023-05-12T12:15:52.843Z,2.80
2023-05-12T12:18:20.240Z,3.22
2023-05-12T12:20:47.684Z,2.90
2023-05-12T12:23:14.945Z,2.58
2023-05-12T12:25:44.694Z,2.60
2023-05-12T12:28:12.290Z,2.50
2023-05-12T12:30:39.530Z,2.47
2023-05-12T12:33:07.017Z,2.47
2023-05-12T12:35:34.411Z,2.75
2023-05-12T12:38:01.682Z,2.70
2023-05-12T12:40:28.987Z,2.70
2023-05-12T12:42:56.294Z,2.45
2023-05-12T12:45:23.720Z,2.80
2023-05-12T12:47:54.963Z,3.00
2023-05-12T12:50:25.027Z,2.78
2023-05-12T12:52:53.146Z,3.10
2023-05-12T12:55:20.696Z,3.10
2023-05-12T12:57:48.565Z,2.90
2023-05-12T13:00:16.179Z,2.90
2023-05-12T13:02:43.511Z,2.83
2023-05-12T13:05:10.894Z,2.80
2023-05-12T13:07:38.222Z,2.70
2023-05-12T13:10:05.898Z,3.00
2023-05-12T13:12:33.175Z,3.40
2023-05-12T13:15:00.812Z,3.40
2023-05-12T13:17:28.460Z,3.65
2023-05-12T13:19:55.823Z,3.15
2023-05-12T13:22:23.147Z,3.13
2023-05-12T13:24:50.452Z,3.45
2023-05-12T13:27:18.002Z,3.17
2023-05-12T13:29:47.408Z,4.47
2023-05-12T13:32:15.612Z,6.00
2023-05-12T13:34:43.128Z,4.97
2023-05-12T13:37:10.407Z,4.10
2023-05-12T13:39:37.699Z,4.60
2023-05-12T13:42:05.237Z,3.67
2023-05-12T13:44:32.695Z,3.20
2023-05-12T13:47:00.101Z,3.50
2023-05-12T13:49:27.324Z,3.53
2023-05-12T13:51:54.761Z,3.20
2023-05-12T13:54:22.308Z,4.10
2023-05-12T13:56:52.223Z,3.92
2023-05-12T13:59:19.854Z,3.20
2023-05-12T14:01:47.315Z,3.60
2023-05-12T14:04:14.659Z,3.67
2023-05-12T14:06:41.957Z,3.35
2023-05-12T14:09:09.286Z,3.92
2023-05-12T14:11:37.036Z,4.00
2023-05-12T14:14:06.311Z,3.30
2023-05-12T14:16:33.745Z,3.55
2023-05-12T14:19:01.516Z,3.40
2023-05-12T14:21:28.813Z,4.18
2023-05-12T14:23:56.113Z,3.80
2023-05-12T14:26:25.501Z,4.00
2023-05-12T14:28:52.927Z,3.90
2023-05-12T14:31:20.428Z,4.78
2023-05-12T14:33:47.958Z,4.30
2023-05-12T14:36:15.263Z,5.03
2023-05-12T14:38:42.558Z,4.95
2023-05-12T14:41:09.915Z,5.82
2023-05-12T14:43:37.499Z,4.70
2023-05-12T14:46:06.245Z,5.38
2023-05-12T14:48:33.716Z,5.53
2023-05-12T14:51:02.898Z,5.30
2023-05-12T14:53:30.322Z,5.32
2023-05-12T14:55:57.655Z,4.22
2023-05-12T14:58:26.106Z,6.47
2023-05-12T15:00:53.522Z,4.77
2023-05-12T15:03:21.444Z,4.82
2023-05-12T15:08:21.840Z,5.43
2023-05-12T15:10:49.267Z,4.07
2023-05-12T15:13:19.849Z,4.37
2023-05-12T15:15:47.142Z,4.70
2023-05-12T15:18:14.470Z,4.50
2023-05-12T15:20:41.842Z,3.90
2023-05-12T15:23:09.118Z,4.93
2023-05-12T15:25:39.590Z,4.80
2023-05-12T15:28:07.179Z,5.07
2023-05-12T15:30:35.854Z,4.88
2023-05-12T15:33:06.934Z,5.18
2023-05-12T15:35:34.522Z,4.63
2023-05-12T15:38:04.970Z,4.63
2023-05-12T15:40:32.398Z,5.10
2023-05-12T15:43:00.264Z,5.72
2023-05-12T15:45:27.556Z,5.95
2023-05-12T15:47:56.441Z,5.57
2023-05-12T15:50:24.621Z,5.93
2023-05-12T15:52:52.097Z,5.22
2023-05-12T15:55:19.825Z,6.53
2023-05-12T15:57:47.230Z,6.70
2023-05-12T16:00:15.458Z,6.78
2023-05-12T16:02:42.847Z,6.50
2023-05-12T16:05:10.422Z,6.40
2023-05-12T16:07:38.840Z,6.47
2023-05-12T16:10:06.550Z,5.88
2023-05-12T16:12:35.781Z,6.35
2023-05-12T16:15:04.943Z,5.20
2023-05-12T16:17:32.246Z,6.07
2023-05-12T16:19:59.606Z,5.70
2023-05-12T16:22:26.874Z,4.75
2023-05-12T16:24:55.702Z,5.68
2023-05-12T16:27:22.983Z,5.20
2023-05-12T16:29:53.356Z,5.35
2023-05-12T16:32:20.763Z,5.13
2023-05-12T16:34:48.066Z,5.07
2023-05-12T16:37:15.286Z,5.75
2023-05-12T16:39:42.699Z,5.40
2023-05-12T16:42:09.971Z,5.55
2023-05-12T16:44:37.234Z,5.57
2023-05-12T16:47:04.668Z,6.43
2023-05-12T16:49:31.911Z,6.35
2023-05-12T16:51:59.208Z,7.23
2023-05-12T16:54:26.668Z,7.03
2023-05-12T16:56:53.938Z,7.65
2023-05-12T16:59:21.318Z,7.45
2023-05-12T17:01:48.654Z,6.68
2023-05-12T17:04:16.610Z,7.67
2023-05-12T17:06:44.125Z,7.47
2023-05-12T17:09:11.618Z,8.77
2023-05-12T17:11:38.880Z,9.50
2023-05-12T17:14:06.250Z,26.15
2023-05-12T17:16:33.737Z,10.90
2023-05-12T17:21:31.597Z,9.25
2023-05-12T17:23:58.916Z,7.93
2023-05-12T17:26:27.937Z,11.07
2023-05-12T17:28:55.723Z,7.30
2023-05-12T17:31:23.029Z,7.30
2023-05-12T17:33:50.435Z,7.90
2023-05-12T17:36:18.706Z,7.47
2023-05-12T17:38:46.272Z,8.15
2023-05-12T17:41:13.676Z,9.43
2023-05-12T17:43:41.461Z,20.92
2023-05-12T17:46:09.272Z,36.78
2023-05-12T17:48:38.421Z,52.88
2023-05-12T17:51:06.077Z,11.70
2023-05-12T17:53:33.353Z,11.67
2023-05-12T17:56:01.395Z,12.90
2023-05-12T17:58:28.710Z,11.80
2023-05-12T18:00:56.251Z,12.75
2023-05-12T18:03:24.165Z,11.73
2023-05-12T18:05:52.290Z,13.40
2023-05-12T18:08:19.652Z,13.45
2023-05-12T18:10:47.050Z,12.80
2023-05-12T18:13:15.562Z,14.25
2023-05-12T18:15:42.947Z,12.30
2023-05-12T18:18:10.743Z,12.83
2023-05-12T18:20:38.259Z,10.40
2023-05-12T18:23:05.692Z,11.93
2023-05-12T18:25:32.974Z,10.60
2023-05-12T18:28:00.314Z,10.00
2023-05-12T18:30:27.650Z,10.63
2023-05-12T18:32:55.291Z,11.00
2023-05-12T18:35:23.034Z,13.43
2023-05-12T18:37:50.565Z,13.95
2023-05-12T18:40:18.015Z,13.65
2023-05-12T18:42:45.317Z,12.80
2023-05-12T18:45:12.686Z,12.90
2023-05-12T18:47:40.093Z,12.98
2023-05-12T18:50:07.988Z,12.32
2023-05-12T18:52:35.883Z,11.90
2023-05-12T18:55:03.274Z,15.30
2023-05-12T18:57:30.580Z,12.18
2023-05-12T18:59:57.846Z,13.05
2023-05-12T19:02:25.116Z,11.70
2023-05-12T19:04:52.683Z,12.82
2023-05-12T19:07:20.045Z,11.63
2023-05-12T19:09:47.433Z,13.00
2023-05-12T19:12:14.704Z,12.20
2023-05-12T19:14:43.249Z,14.85
2023-05-12T19:17:10.916Z,14.45
2023-05-12T19:19:38.404Z,14.70
2023-05-12T19:22:05.686Z,13.63
2023-05-12T19:24:33.072Z,13.55
2023-05-12T19:27:00.371Z,11.85
2023-05-12T19:29:27.956Z,11.43
2023-05-12T19:31:55.393Z,11.20
2023-05-12T19:34:23.933Z,11.70
2023-05-12T19:36:51.670Z,12.05
2023-05-12T19:39:18.904Z,10.65
2023-05-12T19:41:46.287Z,11.35
2023-05-12T19:44:13.651Z,11.77
2023-05-12T19:46:40.965Z,14.18
2023-05-12T19:49:08.187Z,18.63
2023-05-12T19:51:35.442Z,13.48
2023-05-12T19:54:04.798Z,10.25
2023-05-12T19:56:32.471Z,10.83
2023-05-12T19:58:59.823Z,10.05
2023-05-12T20:01:27.189Z,10.38
2023-05-12T20:03:54.465Z,5.45
2023-05-12T20:06:22.512Z,3.53
2023-05-12T20:08:49.793Z,3.70
2023-05-12T20:11:17.043Z,2.80
2023-05-12T20:13:44.280Z,2.65
2023-05-12T20:16:11.827Z,2.60
2023-05-12T20:18:39.204Z,2.63
2023-05-12T20:21:06.511Z,2.47
2023-05-12T20:23:33.774Z,2.20
2023-05-12T20:26:01.164Z,2.38
2023-05-12T20:28:29.267Z,2.45
2023-05-12T20:30:56.680Z,2.45
2023-05-12T20:33:24.045Z,2.40
2023-05-12T20:35:51.321Z,2.53
2023-05-12T20:38:18.610Z,2.70
2023-05-12T20:40:45.884Z,2.78
2023-05-12T20:43:14.456Z,2.80
2023-05-12T20:45:42.480Z,2.70
2023-05-12T20:48:09.877Z,2.58
2023-05-12T20:50:37.156Z,2.65
2023-05-12T20:53:04.811Z,2.95
2023-05-12T20:55:34.991Z,2.40
2023-05-12T20:58:02.265Z,2.10
2023-05-12T21:00:29.497Z,2.30
2023-05-12T21:02:58.063Z,2.83
2023-05-12T21:05:25.832Z,2.22
2023-05-12T21:07:53.079Z,4.93
2023-05-12T21:10:21.223Z,2.90
2023-05-12T21:12:49.107Z,2.20
2023-05-12T21:15:16.511Z,2.20
2023-05-12T21:17:43.895Z,2.00
2023-05-12T21:20:11.833Z,1.75
2023-05-12T21:22:40.649Z,1.90
2023-05-12T21:25:08.435Z,1.90
2023-05-12T21:27:40.709Z,3.05
2023-05-12T21:30:09.488Z,1.95
2023-05-12T21:32:37.048Z,1.70
2023-05-12T21:35:04.920Z,1.80
2023-05-12T21:37:32.240Z,1.92
2023-05-12T21:39:59.619Z,2.28
2023-05-12T21:42:26.957Z,1.98
2023-05-12T21:44:54.250Z,1.70
2023-05-12T21:47:21.521Z,2.00
2023-05-12T21:49:53.799Z,1.92
2023-05-12T21:52:21.122Z,2.30
2023-05-12T21:54:48.438Z,1.83
2023-05-12T21:57:15.738Z,1.73
2023-05-12T21:59:43.065Z,1.80
2023-05-12T22:02:10.423Z,1.88
2023-05-12T22:04:37.737Z,1.90
2023-05-12T22:07:05.226Z,1.83
2023-05-12T22:09:32.493Z,1.83
2023-05-12T22:12:00.045Z,1.77
2023-05-12T22:14:27.354Z,1.70
2023-05-12T22:16:55.936Z,1.90
2023-05-12T22:19:23.355Z,2.03
2023-05-12T22:21:51.215Z,1.77
2023-05-12T22:24:18.494Z,1.60
2023-05-12T22:26:46.034Z,1.90
2023-05-12T22:29:13.362Z,1.90
2023-05-12T22:31:42.282Z,1.95
2023-05-12T22:34:09.893Z,1.65
2023-05-12T22:36:37.188Z,2.10
2023-05-12T22:39:04.427Z,1.67
2023-05-12T22:41:31.696Z,1.95
2023-05-12T22:43:59.074Z,1.95
2023-05-12T22:46:26.465Z,2.05
2023-05-12T22:48:53.806Z,2.10
2023-05-12T22:51:21.240Z,2.00
2023-05-12T22:53:48.551Z,2.92
2023-05-12T22:56:15.867Z,2.20
2023-05-12T22:58:43.115Z,2.35
2023-05-12T23:01:10.497Z,1.90
2023-05-12T23:03:37.790Z,2.05
2023-05-12T23:06:05.259Z,1.90
2023-05-12T23:08:32.581Z,1.88
2023-05-12T23:10:59.881Z,1.73
2023-05-12T23:13:27.107Z,1.60
2023-05-12T23:15:54.335Z,1.70
2023-05-12T23:18:21.753Z,1.55
2023-05-12T23:20:49.063Z,1.75
2023-05-12T23:23:16.361Z,1.88
2023-05-12T23:25:43.926Z,2.20
2023-05-12T23:28:11.216Z,1.80
2023-05-12T23:30:38.507Z,1.63
2023-05-12T23:33:05.931Z,1.60
2023-05-12T23:35:33.342Z,1.70
2023-05-12T23:38:00.671Z,1.70
2023-05-12T23:40:27.977Z,1.70
2023-05-12T23:42:55.486Z,1.90
2023-05-12T23:45:22.737Z,2.08
2023-05-12T23:47:50.350Z,1.92
2023-05-12T23:50:17.669Z,1.80
2023-05-12T23:52:44.914Z,1.67
2023-05-12T23:55:12.190Z,1.92
2023-05-12T23:57:39.442Z,1.85
